createdAt,value
2023-07-29T00:00:00.430Z,17.4
2023-07-29T00:10:00.426Z,17.2
2023-07-29T00:20:00.413Z,17.1
2023-07-29T00:30:00.421Z,17.0
2023-07-29T00:40:00.454Z,16.9
2023-07-29T00:50:00.404Z,16.9
2023-07-29T01:00:00.427Z,16.8
2023-07-29T01:10:00.399Z,16.7
2023-07-29T01:20:00.440Z,16.7
2023-07-29T01:30:00.403Z,16.7
2023-07-29T01:40:00.393Z,16.7
2023-07-29T01:50:00.387Z,16.7
2023-07-29T02:00:00.401Z,16.7
2023-07-29T02:10:00.401Z,16.4
2023-07-29T02:20:00.448Z,16.3
2023-07-29T02:30:00.420Z,16.1
2023-07-29T02:40:00.403Z,16.1
2023-07-29T02:50:00.431Z,16.0
2023-07-29T03:00:00.426Z,16.0
2023-07-29T03:10:00.432Z,16.1
2023-07-29T03:20:00.445Z,16.1
2023-07-29T03:30:00.449Z,16.2
2023-07-29T03:40:03.938Z,16.0
2023-07-29T03:50:00.405Z,16.1
2023-07-29T04:00:00.400Z,16.3
2023-07-29T04:10:00.392Z,16.5
2023-07-29T04:20:00.420Z,16.9
2023-07-29T04:30:00.405Z,17.0
2023-07-29T04:40:00.460Z,17.3
2023-07-29T04:50:00.406Z,17.8
2023-07-29T05:00:01.606Z,18.6
2023-07-29T05:10:00.606Z,19.6
2023-07-29T05:20:00.502Z,19.8
2023-07-29T05:30:00.513Z,20.4
2023-07-29T05:40:00.643Z,21.3
2023-07-29T05:50:02.897Z,22.3
2023-07-29T06:00:00.367Z,21.5
2023-07-29T06:10:00.364Z,21.5
2023-07-29T06:20:00.364Z,23.0
2023-07-29T06:30:00.385Z,24.0
2023-07-29T06:40:00.350Z,24.6
2023-07-29T06:50:00.630Z,24.9
2023-07-29T07:00:00.360Z,26.0
2023-07-29T07:10:01.718Z,27.0
2023-07-29T07:20:00.345Z,27.9
2023-07-29T07:30:00.388Z,28.0
2023-07-29T07:40:00.351Z,28.4
2023-07-29T07:50:00.397Z,29.9
2023-07-29T08:00:00.391Z,29.8
2023-07-29T08:10:00.413Z,30.6
2023-07-29T08:20:00.373Z,30.5
2023-07-29T08:30:00.350Z,30.9
2023-07-29T08:40:00.355Z,31.5
2023-07-29T08:50:00.342Z,31.9
2023-07-29T09:00:00.379Z,31.0
2023-07-29T09:10:00.342Z,32.5
2023-07-29T09:20:00.354Z,32.3
2023-07-29T09:30:00.365Z,32.7
2023-07-29T09:40:00.437Z,32.6
2023-07-29T09:50:00.351Z,33.0
2023-07-29T10:00:00.380Z,33.9
2023-07-29T10:10:00.373Z,30.5
2023-07-29T10:20:00.413Z,28.5
2023-07-29T10:30:00.375Z,31.4
2023-07-29T10:40:00.375Z,34.0
2023-07-29T10:50:00.425Z,35.0
2023-07-29T11:00:00.408Z,35.3
2023-07-29T11:10:00.374Z,35.3
2023-07-29T11:20:00.359Z,33.6
2023-07-29T11:30:00.436Z,33.8
2023-07-29T11:40:00.375Z,33.5
2023-07-29T11:50:00.401Z,32.4
2023-07-29T12:00:00.377Z,32.4
2023-07-29T12:10:00.423Z,32.4
2023-07-29T12:20:00.366Z,32.4
2023-07-29T12:30:00.372Z,32.7
2023-07-29T12:40:00.389Z,30.9
2023-07-29T12:50:00.379Z,30.3
2023-07-29T13:00:00.370Z,29.6
2023-07-29T13:10:00.374Z,30.4
2023-07-29T13:20:00.387Z,32.8
2023-07-29T13:30:00.412Z,32.7
2023-07-29T13:40:00.565Z,31.5
2023-07-29T13:50:00.414Z,31.2
2023-07-29T14:00:00.440Z,30.9
2023-07-29T14:10:01.990Z,31.1
2023-07-29T14:20:00.418Z,31.2
2023-07-29T14:30:00.371Z,31.0
2023-07-29T14:40:00.403Z,29.9
2023-07-29T14:50:00.396Z,28.6
2023-07-29T15:00:00.459Z,28.4
2023-07-29T15:10:00.444Z,28.4
2023-07-29T15:20:00.406Z,28.0
2023-07-29T15:30:00.525Z,27.8
2023-07-29T15:40:00.390Z,27.7
2023-07-29T15:50:00.398Z,27.3
2023-07-29T16:00:00.371Z,27.0
2023-07-29T16:10:00.342Z,26.6
2023-07-29T16:20:00.350Z,26.4
2023-07-29T16:30:00.491Z,26.0
2023-07-29T16:40:00.433Z,25.8
2023-07-29T16:50:09.086Z,25.0
2023-07-29T17:00:00.408Z,24.5
2023-07-29T17:10:00.380Z,24.5
2023-07-29T17:20:00.391Z,24.6
2023-07-29T17:30:00.370Z,25.0
2023-07-29T17:40:00.579Z,24.8
2023-07-29T17:50:00.423Z,24.6
2023-07-29T18:00:00.421Z,24.6
2023-07-29T18:10:00.387Z,24.4
2023-07-29T18:20:00.393Z,23.9
2023-07-29T18:30:00.372Z,23.2
2023-07-29T18:40:00.347Z,23.1
2023-07-29T18:50:00.369Z,22.8
2023-07-29T19:00:00.381Z,22.3
2023-07-29T19:10:00.358Z,21.7
2023-07-29T19:20:00.344Z,21.1
2023-07-29T19:30:00.463Z,20.6
2023-07-29T19:40:00.343Z,20.1
2023-07-29T19:50:00.353Z,19.8
2023-07-29T20:00:00.372Z,19.4
2023-07-29T20:10:00.455Z,20.2
2023-07-29T20:20:00.356Z,21.2
2023-07-29T20:30:03.071Z,21.4
2023-07-29T20:40:00.377Z,21.3
2023-07-29T20:50:00.363Z,21.0
2023-07-29T21:00:00.372Z,20.5
2023-07-29T21:10:00.361Z,19.8
2023-07-29T21:20:00.354Z,19.2
2023-07-29T21:30:00.382Z,18.9
2023-07-29T21:40:00.378Z,18.8
2023-07-29T21:50:00.366Z,18.6
2023-07-29T22:00:00.352Z,18.5
2023-07-29T22:10:00.349Z,18.6
2023-07-29T22:20:00.340Z,18.6
2023-07-29T22:30:00.364Z,18.6
2023-07-29T22:40:00.421Z,18.6
2023-07-29T22:50:00.381Z,18.4
2023-07-29T23:00:00.420Z,18.4
2023-07-29T23:10:00.366Z,18.4
2023-07-29T23:20:00.391Z,18.4
2023-07-29T23:30:00.397Z,18.4
2023-07-29T23:40:00.381Z,18.5
2023-07-29T23:50:00.376Z,18.8
